createdAt,value
2018-07-24T00:01:12.010Z,20.49
2018-07-24T00:03:40.270Z,20.42
2018-07-24T00:06:08.546Z,20.44
2018-07-24T00:08:36.793Z,20.40
2018-07-24T00:11:05.146Z,20.37
2018-07-24T00:13:33.234Z,20.38
2018-07-24T00:16:01.507Z,20.37
2018-07-24T00:18:29.767Z,20.32
2018-07-24T00:20:58.067Z,20.27
2018-07-24T00:23:26.591Z,20.23
2018-07-24T00:25:54.864Z,20.23
2018-07-24T00:28:23.147Z,20.12
2018-07-24T00:30:51.409Z,20.13
2018-07-24T00:33:20.526Z,20.11
2018-07-24T00:35:48.869Z,20.11
2018-07-24T00:38:17.131Z,20.08
2018-07-24T00:40:45.364Z,20.09
2018-07-24T00:43:13.773Z,19.96
2018-07-24T00:45:42.069Z,19.96
2018-07-24T00:48:10.333Z,19.93
2018-07-24T00:50:38.547Z,19.97
2018-07-24T00:53:06.860Z,19.96
2018-07-24T00:55:35.067Z,19.95
2018-07-24T00:58:03.423Z,19.92
2018-07-24T01:00:31.708Z,19.93
2018-07-24T01:02:59.899Z,19.94
2018-07-24T01:05:28.178Z,19.93
2018-07-24T01:07:56.556Z,19.83
2018-07-24T01:10:25.456Z,19.81
2018-07-24T01:12:53.759Z,19.82
2018-07-24T01:15:22.119Z,19.77
2018-07-24T01:17:50.469Z,19.68
2018-07-24T01:20:18.853Z,19.57
2018-07-24T01:22:47.112Z,19.52
2018-07-24T01:25:15.508Z,19.54
2018-07-24T01:27:43.842Z,19.60
2018-07-24T01:30:12.134Z,19.54
2018-07-24T01:32:40.416Z,19.54
2018-07-24T01:35:08.677Z,19.53
2018-07-24T01:37:36.927Z,19.52
2018-07-24T01:40:05.276Z,19.53
2018-07-24T01:42:33.539Z,19.48
2018-07-24T01:45:01.797Z,19.54
2018-07-24T01:47:30.058Z,19.49
2018-07-24T01:49:58.358Z,19.45
2018-07-24T01:52:26.824Z,19.38
2018-07-24T01:54:55.202Z,19.33
2018-07-24T01:57:23.523Z,19.32
2018-07-24T01:59:51.883Z,19.26
2018-07-24T02:02:21.450Z,19.29
2018-07-24T02:04:49.667Z,19.25
2018-07-24T02:07:18.038Z,19.17
2018-07-24T02:09:46.249Z,19.24
2018-07-24T02:12:14.618Z,19.23
2018-07-24T02:14:42.896Z,19.26
2018-07-24T02:17:11.539Z,19.23
2018-07-24T02:19:39.816Z,19.18
2018-07-24T02:22:08.198Z,19.15
2018-07-24T02:24:36.499Z,19.17
2018-07-24T02:27:05.193Z,19.18
2018-07-24T02:29:33.451Z,19.17
2018-07-24T02:32:01.780Z,19.15
2018-07-24T02:34:30.141Z,19.11
2018-07-24T02:36:58.588Z,19.12
2018-07-24T02:39:27.023Z,19.01
2018-07-24T02:41:55.278Z,18.97
2018-07-24T02:44:23.684Z,19.01
2018-07-24T02:46:51.971Z,19.03
2018-07-24T02:49:20.186Z,19.05
2018-07-24T02:51:48.456Z,19.06
2018-07-24T02:54:16.760Z,19.01
2018-07-24T02:56:45.031Z,18.93
2018-07-24T02:59:13.331Z,18.80
2018-07-24T03:01:41.534Z,18.75
2018-07-24T03:04:09.890Z,18.79
2018-07-24T03:06:38.164Z,18.75
2018-07-24T03:09:08.651Z,18.77
2018-07-24T03:11:36.942Z,18.74
2018-07-24T03:14:05.184Z,18.79
2018-07-24T03:16:33.487Z,18.82
2018-07-24T03:19:01.779Z,18.85
2018-07-24T03:21:30.991Z,18.77
2018-07-24T03:23:59.304Z,18.82
2018-07-24T03:26:27.587Z,18.81
2018-07-24T03:28:55.850Z,18.79
2018-07-24T03:31:24.090Z,18.76
2018-07-24T03:33:52.409Z,18.77
2018-07-24T03:36:20.625Z,18.69
2018-07-24T03:38:48.907Z,18.73
2018-07-24T03:41:17.264Z,18.69
2018-07-24T03:43:45.571Z,18.73
2018-07-24T03:46:13.864Z,18.59
2018-07-24T03:48:42.110Z,18.56
2018-07-24T03:51:10.516Z,18.55
2018-07-24T03:53:38.744Z,18.49
2018-07-24T03:56:07.528Z,18.51
2018-07-24T03:58:35.823Z,18.46
2018-07-24T04:01:04.070Z,18.44
2018-07-24T04:03:32.433Z,18.44
2018-07-24T04:09:32.633Z,18.70
2018-07-24T04:12:00.926Z,18.72
2018-07-24T04:14:29.198Z,18.56
2018-07-24T04:16:57.631Z,18.71
2018-07-24T04:19:25.881Z,18.81
2018-07-24T04:21:54.245Z,18.75
2018-07-24T04:24:22.699Z,18.84
2018-07-24T04:26:50.955Z,18.94
2018-07-24T04:29:19.248Z,19.00
2018-07-24T04:31:47.527Z,19.04
2018-07-24T04:34:15.859Z,19.14
2018-07-24T04:36:44.273Z,19.19
2018-07-24T04:39:12.741Z,19.15
2018-07-24T04:41:41.043Z,19.00
2018-07-24T04:44:10.380Z,19.06
2018-07-24T04:46:38.705Z,19.14
2018-07-24T04:49:07.063Z,19.27
2018-07-24T04:51:35.309Z,19.31
2018-07-24T04:54:03.567Z,19.33
2018-07-24T04:56:31.880Z,19.41
2018-07-24T04:59:00.222Z,19.36
2018-07-24T05:01:28.578Z,19.45
2018-07-24T05:03:56.827Z,19.52
2018-07-24T05:06:25.237Z,19.60
2018-07-24T05:08:53.432Z,19.76
2018-07-24T05:11:21.750Z,19.82
2018-07-24T05:13:52.280Z,20.02
2018-07-24T05:16:20.901Z,20.14
2018-07-24T05:18:49.140Z,20.25
2018-07-24T05:21:17.478Z,20.25
2018-07-24T05:23:45.750Z,20.38
2018-07-24T05:26:13.952Z,20.39
2018-07-24T05:28:42.204Z,20.51
2018-07-24T05:31:10.616Z,20.61
2018-07-24T05:33:38.961Z,20.73
2018-07-24T05:36:07.510Z,20.72
2018-07-24T05:38:35.837Z,20.73
2018-07-24T05:41:04.261Z,21.36
2018-07-24T05:43:32.447Z,21.93
2018-07-24T05:46:00.695Z,22.17
2018-07-24T05:48:29.081Z,22.35
2018-07-24T05:50:57.327Z,22.78
2018-07-24T05:53:25.741Z,23.10
2018-07-24T05:55:53.979Z,23.29
2018-07-24T05:58:22.260Z,23.48
2018-07-24T06:00:50.503Z,23.63
2018-07-24T06:03:18.766Z,23.87
2018-07-24T06:05:47.003Z,23.98
2018-07-24T06:08:15.220Z,24.22
2018-07-24T06:10:43.535Z,24.19
2018-07-24T06:13:11.804Z,24.37
2018-07-24T06:15:40.072Z,24.42
2018-07-24T06:18:08.339Z,24.54
2018-07-24T06:20:36.575Z,24.53
2018-07-24T06:23:04.970Z,24.54
2018-07-24T06:25:33.454Z,24.47
2018-07-24T06:28:01.710Z,24.56
2018-07-24T06:30:29.976Z,24.69
2018-07-24T06:32:58.251Z,24.60
2018-07-24T06:35:26.506Z,24.64
2018-07-24T06:37:54.804Z,24.65
2018-07-24T06:40:23.082Z,24.76
2018-07-24T06:42:51.355Z,24.83
2018-07-24T06:45:19.713Z,24.85
2018-07-24T06:47:47.942Z,24.97
2018-07-24T06:50:16.235Z,25.05
2018-07-24T06:52:44.513Z,25.19
2018-07-24T06:55:12.750Z,25.40
2018-07-24T06:57:41.049Z,25.53
2018-07-24T07:00:09.389Z,25.56
2018-07-24T07:02:37.639Z,25.45
2018-07-24T07:05:06.230Z,25.50
2018-07-24T07:07:34.675Z,25.60
2018-07-24T07:10:02.865Z,25.68
2018-07-24T07:12:31.207Z,25.67
2018-07-24T07:14:59.521Z,25.46
2018-07-24T07:17:27.991Z,25.59
2018-07-24T07:19:56.696Z,25.68
2018-07-24T07:22:25.239Z,25.74
2018-07-24T07:24:53.525Z,25.76
2018-07-24T07:27:21.804Z,26.03
2018-07-24T07:29:50.155Z,26.30
2018-07-24T07:32:18.661Z,26.35
2018-07-24T07:34:47.009Z,26.47
2018-07-24T07:37:15.502Z,26.51
2018-07-24T07:39:43.785Z,26.65
2018-07-24T07:42:12.259Z,26.62
2018-07-24T07:44:40.455Z,26.64
2018-07-24T07:47:08.678Z,26.64
2018-07-24T07:49:36.928Z,26.68
2018-07-24T07:52:05.299Z,26.61
2018-07-24T07:54:33.536Z,26.67
2018-07-24T07:57:01.772Z,26.64
2018-07-24T07:59:30.011Z,26.83
2018-07-24T08:01:58.467Z,26.95
2018-07-24T08:04:26.813Z,26.85
2018-07-24T08:06:55.020Z,26.75
2018-07-24T08:09:24.057Z,26.60
2018-07-24T08:11:52.311Z,26.70
2018-07-24T08:14:32.501Z,26.75
2018-07-24T08:17:00.983Z,26.77
2018-07-24T08:19:29.301Z,26.78
2018-07-24T08:21:57.509Z,26.95
2018-07-24T08:24:26.075Z,27.04
2018-07-24T08:26:54.510Z,27.13
2018-07-24T08:29:22.785Z,27.35
2018-07-24T08:31:51.210Z,27.44
2018-07-24T08:34:19.485Z,27.43
2018-07-24T08:36:47.883Z,27.40
2018-07-24T08:39:16.202Z,27.62
2018-07-24T08:41:44.539Z,27.72
2018-07-24T08:44:12.814Z,27.63
2018-07-24T08:46:41.072Z,27.67
2018-07-24T08:49:09.393Z,27.74
2018-07-24T08:51:38.404Z,27.70
2018-07-24T08:54:07.648Z,27.92
2018-07-24T08:56:35.775Z,27.96
2018-07-24T08:59:04.028Z,28.22
2018-07-24T09:01:32.251Z,28.33
2018-07-24T09:04:00.552Z,28.51
2018-07-24T09:06:28.731Z,28.65
2018-07-24T09:08:56.953Z,28.75
2018-07-24T09:11:25.351Z,28.71
2018-07-24T09:13:53.597Z,28.90
2018-07-24T09:16:21.933Z,28.54
2018-07-24T09:18:50.245Z,28.73
2018-07-24T09:21:18.535Z,28.76
2018-07-24T09:23:46.836Z,28.96
2018-07-24T09:26:15.493Z,29.12
2018-07-24T09:28:44.331Z,29.24
2018-07-24T09:31:12.639Z,29.25
2018-07-24T09:33:41.031Z,29.32
2018-07-24T09:36:09.231Z,29.46
2018-07-24T09:38:37.487Z,29.54
2018-07-24T09:41:05.824Z,29.68
2018-07-24T09:43:34.045Z,29.78
2018-07-24T09:46:02.262Z,29.90
2018-07-24T09:48:30.552Z,30.03
2018-07-24T09:50:58.988Z,30.07
2018-07-24T09:53:28.956Z,30.08
2018-07-24T09:56:02.456Z,30.19
2018-07-24T09:58:31.120Z,30.16
2018-07-24T10:01:04.704Z,30.29
2018-07-24T10:03:33.024Z,30.31
2018-07-24T10:06:01.316Z,30.30
2018-07-24T10:08:29.720Z,30.38
2018-07-24T10:10:58.106Z,30.47
2018-07-24T10:13:26.551Z,30.52
2018-07-24T10:15:54.685Z,30.65
2018-07-24T10:18:23.011Z,30.78
2018-07-24T10:20:51.255Z,30.76
2018-07-24T10:23:19.514Z,30.94
2018-07-24T10:25:47.866Z,31.01
2018-07-24T10:28:16.156Z,31.05
2018-07-24T10:30:44.566Z,31.18
2018-07-24T10:33:12.806Z,31.25
2018-07-24T10:35:41.027Z,31.30
2018-07-24T10:38:09.390Z,31.31
2018-07-24T10:40:37.772Z,31.29
2018-07-24T10:43:06.156Z,31.46
2018-07-24T10:45:34.325Z,31.57
2018-07-24T10:48:02.713Z,31.50
2018-07-24T10:50:31.059Z,31.58
2018-07-24T10:52:59.429Z,31.69
2018-07-24T10:55:27.687Z,31.69
2018-07-24T10:57:56.143Z,31.69
2018-07-24T11:00:24.413Z,31.85
2018-07-24T11:02:52.730Z,31.86
2018-07-24T11:05:20.960Z,31.95
2018-07-24T11:07:49.139Z,31.84
2018-07-24T11:10:17.406Z,31.86
2018-07-24T11:12:45.679Z,31.91
2018-07-24T11:15:13.984Z,32.01
2018-07-24T11:17:42.155Z,31.94
2018-07-24T11:20:10.382Z,32.06
2018-07-24T11:22:38.782Z,32.07
2018-07-24T11:25:06.987Z,32.12
2018-07-24T11:27:35.213Z,32.06
2018-07-24T11:30:03.544Z,32.19
2018-07-24T11:32:32.562Z,32.19
2018-07-24T11:35:00.972Z,32.14
2018-07-24T11:37:29.264Z,32.01
2018-07-24T11:39:57.786Z,32.17
2018-07-24T11:42:26.492Z,32.13
2018-07-24T11:44:54.697Z,32.42
2018-07-24T11:47:23.081Z,32.72
2018-07-24T11:49:51.275Z,33.05
2018-07-24T11:52:19.539Z,33.33
2018-07-24T11:54:47.743Z,33.38
2018-07-24T11:57:16.209Z,33.53
2018-07-24T11:59:44.520Z,33.93
2018-07-24T12:02:12.864Z,34.25
2018-07-24T12:04:41.272Z,34.69
2018-07-24T12:07:09.552Z,35.15
2018-07-24T12:09:37.861Z,35.80
2018-07-24T12:12:06.378Z,36.50
2018-07-24T12:14:34.692Z,37.21
2018-07-24T12:17:02.948Z,38.18
2018-07-24T12:19:31.280Z,39.04
2018-07-24T12:21:59.486Z,40.05
2018-07-24T12:24:27.876Z,40.56
2018-07-24T12:26:56.365Z,40.42
2018-07-24T12:29:25.716Z,41.55
2018-07-24T12:31:53.978Z,42.68
2018-07-24T12:34:22.254Z,43.55
2018-07-24T12:36:50.532Z,44.63
2018-07-24T12:39:18.782Z,45.04
2018-07-24T12:41:47.120Z,45.81
2018-07-24T12:44:15.385Z,46.34
2018-07-24T12:46:43.675Z,46.62
2018-07-24T12:49:11.983Z,46.69
2018-07-24T12:51:40.283Z,47.46
2018-07-24T12:54:08.684Z,47.42
2018-07-24T12:56:36.918Z,47.52
2018-07-24T12:59:06.364Z,47.54
2018-07-24T13:01:34.581Z,47.49
2018-07-24T13:04:02.872Z,47.55
2018-07-24T13:06:31.288Z,46.83
2018-07-24T13:09:00.580Z,46.30
2018-07-24T13:11:28.874Z,47.12
2018-07-24T13:13:57.430Z,47.16
2018-07-24T13:16:25.680Z,47.79
2018-07-24T13:18:53.887Z,47.85
2018-07-24T13:21:22.165Z,47.74
2018-07-24T13:23:50.466Z,48.37
2018-07-24T13:26:18.780Z,48.81
2018-07-24T13:28:47.091Z,49.05
2018-07-24T13:31:15.379Z,49.90
2018-07-24T13:33:43.691Z,49.97
2018-07-24T13:36:12.110Z,48.49
2018-07-24T13:38:40.507Z,46.16
2018-07-24T13:41:08.854Z,44.22
2018-07-24T13:43:37.259Z,42.83
2018-07-24T13:46:05.604Z,42.49
2018-07-24T13:48:33.882Z,43.93
2018-07-24T13:51:02.191Z,45.57
2018-07-24T13:53:30.478Z,46.80
2018-07-24T13:55:58.763Z,47.93
2018-07-24T13:58:27.252Z,49.16
2018-07-24T14:00:55.497Z,50.08
2018-07-24T14:03:23.851Z,50.84
2018-07-24T14:05:52.290Z,51.13
2018-07-24T14:08:20.620Z,50.31
2018-07-24T14:10:48.806Z,50.81
2018-07-24T14:13:17.047Z,50.47
2018-07-24T14:15:45.346Z,50.54
2018-07-24T14:18:13.569Z,50.54
2018-07-24T14:20:41.771Z,50.55
2018-07-24T14:23:10.006Z,50.94
2018-07-24T14:25:38.227Z,50.95
2018-07-24T14:28:06.485Z,51.97
2018-07-24T14:30:34.843Z,51.98
2018-07-24T14:33:03.091Z,52.13
2018-07-24T14:35:31.351Z,51.44
2018-07-24T14:37:59.541Z,51.40
2018-07-24T14:40:27.800Z,51.03
2018-07-24T14:42:56.500Z,51.22
2018-07-24T14:45:24.772Z,50.97
2018-07-24T14:47:53.050Z,51.95
2018-07-24T14:50:21.269Z,52.38
2018-07-24T14:52:49.792Z,52.15
2018-07-24T14:55:18.199Z,52.22
2018-07-24T14:57:46.416Z,52.56
2018-07-24T15:00:14.700Z,50.89
2018-07-24T15:02:42.956Z,47.15
2018-07-24T15:05:11.220Z,47.04
2018-07-24T15:07:39.461Z,45.66
2018-07-24T15:10:07.848Z,45.43
2018-07-24T15:12:36.147Z,44.11
2018-07-24T15:15:16.704Z,43.49
2018-07-24T15:17:45.477Z,42.54
2018-07-24T15:20:13.682Z,41.83
2018-07-24T15:22:41.977Z,40.89
2018-07-24T15:25:10.543Z,41.65
2018-07-24T15:27:38.939Z,43.20
2018-07-24T15:30:08.471Z,44.56
2018-07-24T15:32:36.804Z,45.80
2018-07-24T15:35:05.339Z,46.62
2018-07-24T15:37:33.614Z,47.14
2018-07-24T15:40:01.974Z,46.80
2018-07-24T15:42:30.302Z,47.42
2018-07-24T15:44:58.583Z,47.85
2018-07-24T15:47:26.956Z,47.67
2018-07-24T15:49:55.448Z,47.86
2018-07-24T15:52:24.355Z,47.28
2018-07-24T15:54:52.709Z,47.09
2018-07-24T15:57:20.922Z,47.14
2018-07-24T15:59:49.311Z,47.01
2018-07-24T16:02:17.562Z,46.60
2018-07-24T16:04:45.831Z,46.64
2018-07-24T16:07:14.205Z,47.41
2018-07-24T16:09:42.528Z,46.69
2018-07-24T16:12:11.123Z,47.39
2018-07-24T16:14:39.419Z,47.52
2018-07-24T16:17:07.939Z,48.02
2018-07-24T16:19:36.285Z,48.08
2018-07-24T16:22:04.717Z,47.91
2018-07-24T16:24:33.153Z,47.02
2018-07-24T16:27:01.446Z,47.37
2018-07-24T16:29:29.774Z,47.52
2018-07-24T16:31:58.053Z,47.36
2018-07-24T16:34:26.474Z,46.45
2018-07-24T16:36:54.691Z,45.94
2018-07-24T16:39:23.019Z,44.90
2018-07-24T16:41:51.259Z,43.04
2018-07-24T16:44:19.594Z,42.06
2018-07-24T16:46:47.924Z,41.69
2018-07-24T16:49:16.151Z,42.04
2018-07-24T16:51:44.571Z,42.17
2018-07-24T16:54:12.846Z,42.35
2018-07-24T16:56:41.064Z,42.62
2018-07-24T16:59:09.325Z,43.02
2018-07-24T17:01:37.783Z,43.25
2018-07-24T17:04:06.218Z,43.09
2018-07-24T17:06:34.562Z,43.48
2018-07-24T17:09:03.018Z,43.49
2018-07-24T17:11:31.296Z,43.22
2018-07-24T17:13:59.611Z,43.05
2018-07-24T17:16:27.911Z,43.30
2018-07-24T17:18:56.306Z,42.98
2018-07-24T17:21:24.955Z,42.93
2018-07-24T17:23:53.330Z,42.47
2018-07-24T17:26:21.739Z,42.34
2018-07-24T17:28:49.946Z,42.40
2018-07-24T17:31:18.409Z,42.20
2018-07-24T17:33:46.667Z,42.10
2018-07-24T17:36:15.660Z,41.67
2018-07-24T17:38:44.524Z,41.90
2018-07-24T17:41:16.691Z,41.82
2018-07-24T17:43:44.967Z,41.60
2018-07-24T17:46:13.286Z,41.37
2018-07-24T17:48:41.492Z,40.56
2018-07-24T17:51:09.995Z,40.35
2018-07-24T17:53:38.524Z,40.36
2018-07-24T17:56:06.718Z,40.21
2018-07-24T17:58:35.036Z,39.75
2018-07-24T18:01:03.297Z,39.30
2018-07-24T18:03:31.577Z,38.24
2018-07-24T18:06:00.113Z,37.74
2018-07-24T18:08:28.340Z,37.06
2018-07-24T18:10:56.544Z,36.34
2018-07-24T18:13:24.866Z,36.00
2018-07-24T18:15:53.369Z,35.25
2018-07-24T18:18:21.770Z,34.81
2018-07-24T18:20:50.074Z,34.31
2018-07-24T18:23:18.342Z,34.04
2018-07-24T18:25:46.940Z,33.62
2018-07-24T18:28:15.866Z,33.17
2018-07-24T18:30:44.228Z,32.72
2018-07-24T18:33:23.810Z,32.53
2018-07-24T18:35:52.266Z,32.19
2018-07-24T18:38:20.572Z,31.95
2018-07-24T18:40:48.903Z,31.75
2018-07-24T18:43:17.134Z,31.52
2018-07-24T18:45:45.542Z,31.28
2018-07-24T18:48:13.795Z,31.09
2018-07-24T18:50:42.221Z,30.95
2018-07-24T18:53:10.679Z,30.71
2018-07-24T18:55:39.131Z,30.49
2018-07-24T18:58:07.587Z,30.29
2018-07-24T19:00:35.829Z,30.03
2018-07-24T19:03:04.407Z,29.91
2018-07-24T19:05:32.782Z,29.72
2018-07-24T19:08:01.195Z,29.59
2018-07-24T19:10:29.419Z,29.43
2018-07-24T19:12:57.658Z,29.22
2018-07-24T19:15:26.023Z,29.11
2018-07-24T19:17:54.362Z,28.97
2018-07-24T19:20:22.744Z,28.85
2018-07-24T19:22:51.050Z,28.73
2018-07-24T19:25:19.436Z,28.64
2018-07-24T19:27:48.220Z,28.46
2018-07-24T19:30:16.532Z,28.37
2018-07-24T19:32:48.593Z,28.26
2018-07-24T19:35:17.240Z,28.23
2018-07-24T19:37:45.721Z,28.12
2018-07-24T19:40:13.930Z,28.03
2018-07-24T19:42:42.166Z,27.88
2018-07-24T19:45:10.858Z,27.77
2018-07-24T19:47:39.997Z,27.66
2018-07-24T19:50:08.381Z,27.55
2018-07-24T19:52:36.951Z,27.43
2018-07-24T19:55:05.513Z,27.29
2018-07-24T19:57:33.725Z,27.14
2018-07-24T20:00:02.003Z,27.08
2018-07-24T20:02:30.359Z,27.07
2018-07-24T20:04:58.639Z,27.08
2018-07-24T20:07:26.886Z,27.04
2018-07-24T20:09:55.164Z,27.04
2018-07-24T20:12:23.604Z,26.88
2018-07-24T20:14:52.208Z,26.92
2018-07-24T20:17:20.750Z,27.03
2018-07-24T20:19:49.059Z,27.07
2018-07-24T20:22:17.376Z,27.09
2018-07-24T20:24:46.155Z,27.10
2018-07-24T20:27:14.930Z,27.10
2018-07-24T20:29:43.738Z,27.10
2018-07-24T20:32:12.048Z,27.08
2018-07-24T20:34:40.323Z,27.07
2018-07-24T20:37:08.603Z,27.06
2018-07-24T20:39:36.829Z,27.02
2018-07-24T20:42:05.228Z,26.94
2018-07-24T20:44:33.582Z,26.81
2018-07-24T20:47:02.064Z,26.63
2018-07-24T20:49:30.678Z,26.61
2018-07-24T20:51:58.969Z,26.55
2018-07-24T20:54:27.228Z,26.44
2018-07-24T20:56:55.535Z,26.35
2018-07-24T20:59:44.395Z,26.23
2018-07-24T21:02:13.392Z,26.06
2018-07-24T21:04:41.678Z,25.97
2018-07-24T21:07:09.895Z,25.79
2018-07-24T21:09:38.247Z,25.69
2018-07-24T21:12:06.501Z,25.68
2018-07-24T21:14:34.835Z,25.61
2018-07-24T21:17:03.135Z,25.49
2018-07-24T21:19:31.384Z,25.47
2018-07-24T21:21:59.785Z,25.48
2018-07-24T21:24:28.019Z,25.41
2018-07-24T21:26:56.476Z,25.26
2018-07-24T21:29:24.818Z,25.11
2018-07-24T21:31:53.072Z,25.04
2018-07-24T21:34:21.369Z,24.99
2018-07-24T21:36:49.603Z,24.89
2018-07-24T21:39:18.018Z,24.82
2018-07-24T21:41:46.224Z,24.79
2018-07-24T21:44:14.499Z,24.68
2018-07-24T21:46:42.800Z,24.57
2018-07-24T21:49:11.094Z,24.58
2018-07-24T21:51:39.304Z,24.55
2018-07-24T21:54:07.579Z,24.42
2018-07-24T21:56:35.833Z,23.97
2018-07-24T21:59:04.037Z,23.76
2018-07-24T22:01:32.339Z,23.69
2018-07-24T22:04:00.597Z,23.88
2018-07-24T22:06:28.878Z,23.75
2018-07-24T22:08:57.212Z,23.81
2018-07-24T22:11:25.363Z,23.96
2018-07-24T22:13:53.615Z,23.95
2018-07-24T22:16:21.896Z,23.89
2018-07-24T22:18:50.240Z,23.83
2018-07-24T22:21:18.547Z,23.69
2018-07-24T22:23:46.854Z,23.47
2018-07-24T22:26:15.756Z,23.41
2018-07-24T22:28:43.976Z,23.30
2018-07-24T22:31:13.281Z,23.66
2018-07-24T22:33:41.546Z,23.85
2018-07-24T22:36:09.942Z,23.90
2018-07-24T22:38:38.751Z,24.03
2018-07-24T22:41:08.150Z,24.01
2018-07-24T22:43:36.570Z,24.03
2018-07-24T22:46:04.845Z,24.19
2018-07-24T22:48:33.539Z,24.14
2018-07-24T22:51:01.775Z,24.29
2018-07-24T22:53:30.057Z,23.99
2018-07-24T22:55:58.435Z,23.78
2018-07-24T22:58:26.623Z,23.64
2018-07-24T23:00:55.058Z,23.62
2018-07-24T23:03:23.346Z,23.55
2018-07-24T23:05:56.685Z,23.46
2018-07-24T23:08:26.069Z,23.44
2018-07-24T23:10:54.303Z,23.41
2018-07-24T23:13:22.535Z,23.22
2018-07-24T23:15:50.936Z,22.91
2018-07-24T23:18:19.268Z,23.00
2018-07-24T23:20:47.546Z,22.88
2018-07-24T23:23:16.039Z,23.21
2018-07-24T23:25:44.254Z,23.12
2018-07-24T23:28:12.696Z,23.04
2018-07-24T23:30:41.083Z,23.01
2018-07-24T23:33:09.331Z,22.70
2018-07-24T23:35:37.565Z,22.57
2018-07-24T23:38:06.356Z,22.68
2018-07-24T23:40:34.683Z,23.00
2018-07-24T23:43:02.972Z,23.02
2018-07-24T23:45:31.201Z,22.97
2018-07-24T23:47:59.514Z,23.03
2018-07-24T23:50:27.800Z,22.80
2018-07-24T23:52:56.663Z,22.84
2018-07-24T23:55:25.892Z,22.63
2018-07-24T23:57:54.208Z,22.60
